Maxwell, New Mexico
Current Conditions -  °F | °C
As of 11:53 AM on Wednesday 26 Nov 2014 (Local Time) from KRTN Reporting Station
Clear Clear  
Wind Chill: 50°   Ceiling: Unl
Heat Index: 50°   Visibility: 10mi
Dew Point: 22°   Wind: 8mph
Humidity: 33%   Direction: 210°SSW
Pressure: 30.2"   Gusts: NA
Location:  36.54°N, 104.54°W
Report Text: KRTN 261853Z AUTO 21007KT 10SM CLR 10/M06 A3020 RMK AO2 SLP204 T01001056
Loading
Personal Weather Stations






























Interactive Weather Map New forecast layout! Learn more

10-Day Weather Forecast

Advertisements
Track Severe Weather on mobile